sensor_id;sensor_type;location;lat;lon;timestamp;P1;durP1;ratioP1;P2;durP2;ratioP2
6388;SDS011;3227;42.654;23.360;2023-04-01T00:01:25;28.63;;;12.00;;
6388;SDS011;3227;42.654;23.360;2023-04-01T00:03:52;24.10;;;11.50;;
6388;SDS011;3227;42.654;23.360;2023-04-01T00:06:21;23.43;;;10.73;;
6388;SDS011;3227;42.654;23.360;2023-04-01T00:08:48;22.20;;;10.67;;
6388;SDS011;3227;42.654;23.360;2023-04-01T00:11:15;19.70;;;10.70;;
6388;SDS011;3227;42.654;23.360;2023-04-01T00:13:42;21.77;;;11.20;;
6388;SDS011;3227;42.654;23.360;2023-04-01T00:16:09;16.77;;;9.60;;
6388;SDS011;3227;42.654;23.360;2023-04-01T00:18:36;21.67;;;11.17;;
6388;SDS011;3227;42.654;23.360;2023-04-01T00:21:03;18.50;;;10.83;;
6388;SDS011;3227;42.654;23.360;2023-04-01T00:23:31;18.20;;;11.07;;
6388;SDS011;3227;42.654;23.360;2023-04-01T00:25:58;18.10;;;9.97;;
6388;SDS011;3227;42.654;23.360;2023-04-01T00:28:26;17.30;;;8.53;;
6388;SDS011;3227;42.654;23.360;2023-04-01T00:30:53;18.63;;;9.77;;
6388;SDS011;3227;42.654;23.360;2023-04-01T00:33:20;19.07;;;9.20;;
6388;SDS011;3227;42.654;23.360;2023-04-01T00:35:47;15.03;;;9.30;;
6388;SDS011;3227;42.654;23.360;2023-04-01T00:38:13;17.60;;;9.07;;
6388;SDS011;3227;42.654;23.360;2023-04-01T00:40:43;17.97;;;9.40;;
6388;SDS011;3227;42.654;23.360;2023-04-01T00:43:12;18.80;;;9.50;;
6388;SDS011;3227;42.654;23.360;2023-04-01T00:45:43;17.33;;;8.63;;
6388;SDS011;3227;42.654;23.360;2023-04-01T00:48:11;16.00;;;9.37;;
6388;SDS011;3227;42.654;23.360;2023-04-01T00:50:42;26.13;;;9.90;;
6388;SDS011;3227;42.654;23.360;2023-04-01T00:53:12;16.53;;;8.93;;
6388;SDS011;3227;42.654;23.360;2023-04-01T00:55:41;17.17;;;8.63;;
6388;SDS011;3227;42.654;23.360;2023-04-01T00:58:15;21.67;;;9.80;;
6388;SDS011;3227;42.654;23.360;2023-04-01T01:00:44;16.60;;;9.50;;
6388;SDS011;3227;42.654;23.360;2023-04-01T01:03:13;15.30;;;8.27;;
6388;SDS011;3227;42.654;23.360;2023-04-01T01:08:34;15.20;;;8.07;;
6388;SDS011;3227;42.654;23.360;2023-04-01T01:11:14;15.33;;;8.73;;
6388;SDS011;3227;42.654;23.360;2023-04-01T01:13:50;16.07;;;9.17;;
6388;SDS011;3227;42.654;23.360;2023-04-01T01:16:25;14.13;;;8.43;;
6388;SDS011;3227;42.654;23.360;2023-04-01T01:18:56;14.13;;;7.33;;
6388;SDS011;3227;42.654;23.360;2023-04-01T01:21:36;16.00;;;7.37;;
6388;SDS011;3227;42.654;23.360;2023-04-01T01:24:26;13.93;;;7.03;;
6388;SDS011;3227;42.654;23.360;2023-04-01T01:27:11;18.23;;;7.40;;
6388;SDS011;3227;42.654;23.360;2023-04-01T01:29:50;14.90;;;7.50;;
6388;SDS011;3227;42.654;23.360;2023-04-01T01:32:47;14.70;;;7.27;;
6388;SDS011;3227;42.654;23.360;2023-04-01T01:35:27;17.40;;;6.73;;
6388;SDS011;3227;42.654;23.360;2023-04-01T01:37:59;11.67;;;6.90;;
6388;SDS011;3227;42.654;23.360;2023-04-01T01:40:29;10.63;;;5.60;;
6388;SDS011;3227;42.654;23.360;2023-04-01T01:43:00;13.63;;;5.57;;
6388;SDS011;3227;42.654;23.360;2023-04-01T01:45:32;14.47;;;6.20;;
6388;SDS011;3227;42.654;23.360;2023-04-01T01:48:01;14.87;;;6.70;;
6388;SDS011;3227;42.654;23.360;2023-04-01T01:50:31;16.23;;;7.37;;
6388;SDS011;3227;42.654;23.360;2023-04-01T01:53:02;12.57;;;5.90;;
6388;SDS011;3227;42.654;23.360;2023-04-01T01:55:31;11.77;;;5.87;;
6388;SDS011;3227;42.654;23.360;2023-04-01T01:58:01;15.77;;;5.10;;
6388;SDS011;3227;42.654;23.360;2023-04-01T02:00:32;10.03;;;5.13;;
6388;SDS011;3227;42.654;23.360;2023-04-01T02:03:00;16.00;;;5.83;;
6388;SDS011;3227;42.654;23.360;2023-04-01T02:05:27;10.40;;;4.30;;
6388;SDS011;3227;42.654;23.360;2023-04-01T02:08:00;11.27;;;5.23;;
6388;SDS011;3227;42.654;23.360;2023-04-01T02:10:31;11.37;;;5.60;;
6388;SDS011;3227;42.654;23.360;2023-04-01T02:13:04;11.97;;;5.50;;
6388;SDS011;3227;42.654;23.360;2023-04-01T02:15:34;11.80;;;5.20;;
6388;SDS011;3227;42.654;23.360;2023-04-01T02:18:08;12.93;;;5.50;;
6388;SDS011;3227;42.654;23.360;2023-04-01T02:20:35;14.83;;;5.60;;
6388;SDS011;3227;42.654;23.360;2023-04-01T02:23:06;11.20;;;4.93;;
6388;SDS011;3227;42.654;23.360;2023-04-01T02:25:34;11.93;;;4.80;;
6388;SDS011;3227;42.654;23.360;2023-04-01T02:28:03;11.03;;;5.00;;
6388;SDS011;3227;42.654;23.360;2023-04-01T02:30:33;12.70;;;5.30;;
6388;SDS011;3227;42.654;23.360;2023-04-01T02:33:03;11.03;;;4.67;;
6388;SDS011;3227;42.654;23.360;2023-04-01T02:35:32;11.13;;;5.47;;
6388;SDS011;3227;42.654;23.360;2023-04-01T02:38:01;17.83;;;5.97;;
6388;SDS011;3227;42.654;23.360;2023-04-01T02:40:39;11.53;;;5.77;;
6388;SDS011;3227;42.654;23.360;2023-04-01T02:43:07;12.87;;;5.50;;
6388;SDS011;3227;42.654;23.360;2023-04-01T02:45:34;11.63;;;5.07;;
6388;SDS011;3227;42.654;23.360;2023-04-01T02:48:01;10.73;;;5.27;;
6388;SDS011;3227;42.654;23.360;2023-04-01T02:50:28;19.03;;;5.03;;
6388;SDS011;3227;42.654;23.360;2023-04-01T02:52:54;14.13;;;5.07;;
6388;SDS011;3227;42.654;23.360;2023-04-01T02:55:21;10.57;;;5.00;;
6388;SDS011;3227;42.654;23.360;2023-04-01T02:57:49;12.63;;;5.10;;
6388;SDS011;3227;42.654;23.360;2023-04-01T03:00:16;12.57;;;5.73;;
6388;SDS011;3227;42.654;23.360;2023-04-01T03:02:43;16.07;;;5.80;;
6388;SDS011;3227;42.654;23.360;2023-04-01T03:05:10;12.83;;;5.57;;
6388;SDS011;3227;42.654;23.360;2023-04-01T03:07:37;10.63;;;5.43;;
6388;SDS011;3227;42.654;23.360;2023-04-01T03:10:05;13.73;;;5.67;;
6388;SDS011;3227;42.654;23.360;2023-04-01T03:12:32;11.70;;;5.90;;
6388;SDS011;3227;42.654;23.360;2023-04-01T03:15:00;24.37;;;6.33;;
6388;SDS011;3227;42.654;23.360;2023-04-01T03:17:27;12.07;;;5.80;;
6388;SDS011;3227;42.654;23.360;2023-04-01T03:19:54;11.47;;;5.50;;
6388;SDS011;3227;42.654;23.360;2023-04-01T03:22:21;10.97;;;5.40;;
6388;SDS011;3227;42.654;23.360;2023-04-01T03:24:48;12.93;;;6.40;;
6388;SDS011;3227;42.654;23.360;2023-04-01T03:27:14;15.40;;;5.87;;
6388;SDS011;3227;42.654;23.360;2023-04-01T03:29:41;14.10;;;5.77;;
6388;SDS011;3227;42.654;23.360;2023-04-01T03:32:09;18.50;;;6.47;;
6388;SDS011;3227;42.654;23.360;2023-04-01T03:34:36;15.20;;;6.23;;
6388;SDS011;3227;42.654;23.360;2023-04-01T03:37:03;16.10;;;6.23;;
6388;SDS011;3227;42.654;23.360;2023-04-01T03:39:31;12.60;;;6.30;;
6388;SDS011;3227;42.654;23.360;2023-04-01T03:41:57;9.40;;;5.40;;
6388;SDS011;3227;42.654;23.360;2023-04-01T03:44:25;16.00;;;6.57;;
6388;SDS011;3227;42.654;23.360;2023-04-01T03:46:52;15.53;;;7.13;;
6388;SDS011;3227;42.654;23.360;2023-04-01T03:49:20;16.37;;;7.10;;
6388;SDS011;3227;42.654;23.360;2023-04-01T03:51:46;19.33;;;7.37;;
6388;SDS011;3227;42.654;23.360;2023-04-01T03:54:13;17.77;;;7.50;;
6388;SDS011;3227;42.654;23.360;2023-04-01T03:56:40;14.83;;;7.10;;
6388;SDS011;3227;42.654;23.360;2023-04-01T03:59:07;16.53;;;7.37;;
6388;SDS011;3227;42.654;23.360;2023-04-01T04:01:34;16.17;;;7.20;;
6388;SDS011;3227;42.654;23.360;2023-04-01T04:04:01;17.73;;;7.03;;
6388;SDS011;3227;42.654;23.360;2023-04-01T04:06:29;12.67;;;6.53;;
6388;SDS011;3227;42.654;23.360;2023-04-01T04:08:56;16.13;;;6.77;;
6388;SDS011;3227;42.654;23.360;2023-04-01T04:11:23;15.43;;;7.33;;
6388;SDS011;3227;42.654;23.360;2023-04-01T04:13:50;17.50;;;7.13;;
6388;SDS011;3227;42.654;23.360;2023-04-01T04:16:19;17.80;;;7.70;;
6388;SDS011;3227;42.654;23.360;2023-04-01T04:18:45;16.07;;;7.40;;
6388;SDS011;3227;42.654;23.360;2023-04-01T04:21:13;13.27;;;7.60;;
6388;SDS011;3227;42.654;23.360;2023-04-01T04:23:42;17.27;;;6.93;;
6388;SDS011;3227;42.654;23.360;2023-04-01T04:26:10;14.80;;;7.00;;
6388;SDS011;3227;42.654;23.360;2023-04-01T04:28:38;14.80;;;6.37;;
6388;SDS011;3227;42.654;23.360;2023-04-01T04:31:05;17.60;;;7.10;;
6388;SDS011;3227;42.654;23.360;2023-04-01T04:33:33;13.03;;;6.40;;
6388;SDS011;3227;42.654;23.360;2023-04-01T04:36:00;15.60;;;6.90;;
6388;SDS011;3227;42.654;23.360;2023-04-01T04:38:28;12.57;;;6.37;;
6388;SDS011;3227;42.654;23.360;2023-04-01T04:40:56;12.53;;;6.03;;
6388;SDS011;3227;42.654;23.360;2023-04-01T04:43:23;16.63;;;5.80;;
6388;SDS011;3227;42.654;23.360;2023-04-01T04:45:50;13.17;;;5.67;;
6388;SDS011;3227;42.654;23.360;2023-04-01T04:48:17;13.17;;;5.53;;
6388;SDS011;3227;42.654;23.360;2023-04-01T04:50:45;15.77;;;5.50;;
6388;SDS011;3227;42.654;23.360;2023-04-01T04:53:13;13.40;;;4.97;;
6388;SDS011;3227;42.654;23.360;2023-04-01T04:55:42;15.03;;;5.33;;
6388;SDS011;3227;42.654;23.360;2023-04-01T04:58:16;10.17;;;5.47;;
6388;SDS011;3227;42.654;23.360;2023-04-01T05:00:44;10.30;;;5.00;;
6388;SDS011;3227;42.654;23.360;2023-04-01T05:03:11;14.37;;;5.17;;
6388;SDS011;3227;42.654;23.360;2023-04-01T05:05:38;16.37;;;6.47;;
6388;SDS011;3227;42.654;23.360;2023-04-01T05:08:10;16.27;;;7.50;;
6388;SDS011;3227;42.654;23.360;2023-04-01T05:10:37;18.07;;;6.93;;
6388;SDS011;3227;42.654;23.360;2023-04-01T05:13:04;15.90;;;7.07;;
6388;SDS011;3227;42.654;23.360;2023-04-01T05:15:32;13.73;;;7.50;;
6388;SDS011;3227;42.654;23.360;2023-04-01T05:17:59;14.73;;;7.70;;
6388;SDS011;3227;42.654;23.360;2023-04-01T05:20:26;16.80;;;7.17;;
6388;SDS011;3227;42.654;23.360;2023-04-01T05:22:55;13.13;;;6.07;;
6388;SDS011;3227;42.654;23.360;2023-04-01T05:25:22;12.77;;;7.23;;
6388;SDS011;3227;42.654;23.360;2023-04-01T05:27:49;15.50;;;7.03;;
6388;SDS011;3227;42.654;23.360;2023-04-01T05:30:15;19.67;;;6.60;;
6388;SDS011;3227;42.654;23.360;2023-04-01T05:32:44;22.57;;;7.20;;
6388;SDS011;3227;42.654;23.360;2023-04-01T05:35:11;15.97;;;7.47;;
6388;SDS011;3227;42.654;23.360;2023-04-01T05:37:37;14.27;;;6.87;;
6388;SDS011;3227;42.654;23.360;2023-04-01T05:40:05;11.17;;;6.80;;
6388;SDS011;3227;42.654;23.360;2023-04-01T05:42:33;14.30;;;7.10;;
6388;SDS011;3227;42.654;23.360;2023-04-01T05:45:00;13.53;;;7.20;;
6388;SDS011;3227;42.654;23.360;2023-04-01T05:47:27;20.07;;;7.60;;
6388;SDS011;3227;42.654;23.360;2023-04-01T05:49:55;14.97;;;6.63;;
6388;SDS011;3227;42.654;23.360;2023-04-01T05:52:22;16.60;;;6.73;;
6388;SDS011;3227;42.654;23.360;2023-04-01T05:54:49;14.60;;;6.40;;
6388;SDS011;3227;42.654;23.360;2023-04-01T05:57:16;16.33;;;6.40;;
6388;SDS011;3227;42.654;23.360;2023-04-01T05:59:43;13.80;;;6.80;;
6388;SDS011;3227;42.654;23.360;2023-04-01T06:02:10;14.80;;;5.77;;
6388;SDS011;3227;42.654;23.360;2023-04-01T06:04:38;16.47;;;6.33;;
6388;SDS011;3227;42.654;23.360;2023-04-01T06:07:11;15.10;;;6.60;;
6388;SDS011;3227;42.654;23.360;2023-04-01T06:09:38;17.00;;;5.97;;
6388;SDS011;3227;42.654;23.360;2023-04-01T06:15:13;13.80;;;6.53;;
6388;SDS011;3227;42.654;23.360;2023-04-01T06:17:54;17.77;;;6.13;;
6388;SDS011;3227;42.654;23.360;2023-04-01T06:20:32;10.77;;;5.63;;
6388;SDS011;3227;42.654;23.360;2023-04-01T06:23:20;13.27;;;5.70;;
6388;SDS011;3227;42.654;23.360;2023-04-01T06:26:01;16.87;;;6.70;;
6388;SDS011;3227;42.654;23.360;2023-04-01T06:28:52;10.93;;;5.73;;
6388;SDS011;3227;42.654;23.360;2023-04-01T06:34:31;14.47;;;5.70;;
6388;SDS011;3227;42.654;23.360;2023-04-01T06:37:12;11.83;;;5.27;;
6388;SDS011;3227;42.654;23.360;2023-04-01T06:42:59;14.70;;;6.77;;
6388;SDS011;3227;42.654;23.360;2023-04-01T06:45:39;18.23;;;8.17;;
6388;SDS011;3227;42.654;23.360;2023-04-01T06:48:14;18.40;;;8.17;;
6388;SDS011;3227;42.654;23.360;2023-04-01T06:50:57;15.70;;;8.37;;
6388;SDS011;3227;42.654;23.360;2023-04-01T06:53:39;16.23;;;8.33;;
6388;SDS011;3227;42.654;23.360;2023-04-01T06:56:14;14.43;;;6.87;;
6388;SDS011;3227;42.654;23.360;2023-04-01T06:58:49;12.57;;;6.60;;
6388;SDS011;3227;42.654;23.360;2023-04-01T07:01:21;12.87;;;6.17;;
6388;SDS011;3227;42.654;23.360;2023-04-01T07:03:53;10.87;;;6.17;;
6388;SDS011;3227;42.654;23.360;2023-04-01T07:06:26;14.27;;;6.93;;
6388;SDS011;3227;42.654;23.360;2023-04-01T07:08:57;11.97;;;6.77;;
6388;SDS011;3227;42.654;23.360;2023-04-01T07:11:29;17.40;;;6.20;;
6388;SDS011;3227;42.654;23.360;2023-04-01T07:14:00;10.57;;;6.00;;
6388;SDS011;3227;42.654;23.360;2023-04-01T07:16:30;11.73;;;6.00;;
6388;SDS011;3227;42.654;23.360;2023-04-01T07:19:01;15.20;;;5.93;;
6388;SDS011;3227;42.654;23.360;2023-04-01T07:21:32;15.00;;;6.73;;
6388;SDS011;3227;42.654;23.360;2023-04-01T07:24:04;17.50;;;6.63;;
6388;SDS011;3227;42.654;23.360;2023-04-01T07:26:35;14.80;;;6.67;;
6388;SDS011;3227;42.654;23.360;2023-04-01T07:29:08;16.07;;;6.60;;
6388;SDS011;3227;42.654;23.360;2023-04-01T07:31:41;14.67;;;6.30;;
6388;SDS011;3227;42.654;23.360;2023-04-01T07:34:23;14.20;;;7.40;;
6388;SDS011;3227;42.654;23.360;2023-04-01T07:36:56;12.47;;;6.50;;
6388;SDS011;3227;42.654;23.360;2023-04-01T07:39:56;20.33;;;6.17;;
6388;SDS011;3227;42.654;23.360;2023-04-01T07:42:47;16.97;;;6.27;;
6388;SDS011;3227;42.654;23.360;2023-04-01T07:45:30;12.97;;;6.00;;
6388;SDS011;3227;42.654;23.360;2023-04-01T07:48:08;15.97;;;6.67;;
6388;SDS011;3227;42.654;23.360;2023-04-01T07:50:46;14.33;;;6.53;;
6388;SDS011;3227;42.654;23.360;2023-04-01T07:53:22;17.67;;;7.00;;
6388;SDS011;3227;42.654;23.360;2023-04-01T07:55:59;14.80;;;5.63;;
6388;SDS011;3227;42.654;23.360;2023-04-01T07:58:33;21.87;;;6.33;;
6388;SDS011;3227;42.654;23.360;2023-04-01T08:01:13;17.13;;;6.13;;
6388;SDS011;3227;42.654;23.360;2023-04-01T08:03:53;14.73;;;5.67;;
6388;SDS011;3227;42.654;23.360;2023-04-01T08:06:37;12.65;;;6.32;;
6388;SDS011;3227;42.654;23.360;2023-04-01T08:09:10;22.00;;;6.27;;
6388;SDS011;3227;42.654;23.360;2023-04-01T08:11:48;14.27;;;6.03;;
6388;SDS011;3227;42.654;23.360;2023-04-01T08:14:28;11.97;;;5.63;;
6388;SDS011;3227;42.654;23.360;2023-04-01T08:17:07;13.93;;;5.70;;
6388;SDS011;3227;42.654;23.360;2023-04-01T08:19:48;14.67;;;5.93;;
6388;SDS011;3227;42.654;23.360;2023-04-01T08:22:26;10.93;;;5.40;;
6388;SDS011;3227;42.654;23.360;2023-04-01T08:24:55;13.43;;;6.83;;
6388;SDS011;3227;42.654;23.360;2023-04-01T08:27:28;24.37;;;5.83;;
6388;SDS011;3227;42.654;23.360;2023-04-01T08:30:02;20.23;;;6.17;;
6388;SDS011;3227;42.654;23.360;2023-04-01T08:32:34;16.40;;;6.20;;
6388;SDS011;3227;42.654;23.360;2023-04-01T08:35:07;19.20;;;5.73;;
6388;SDS011;3227;42.654;23.360;2023-04-01T08:37:36;16.27;;;5.83;;
6388;SDS011;3227;42.654;23.360;2023-04-01T08:40:15;10.83;;;5.40;;
6388;SDS011;3227;42.654;23.360;2023-04-01T08:42:57;15.67;;;5.30;;
6388;SDS011;3227;42.654;23.360;2023-04-01T08:45:42;10.13;;;5.30;;
6388;SDS011;3227;42.654;23.360;2023-04-01T08:51:42;12.77;;;6.17;;
6388;SDS011;3227;42.654;23.360;2023-04-01T08:54:25;12.20;;;5.30;;
6388;SDS011;3227;42.654;23.360;2023-04-01T08:57:21;12.97;;;5.63;;
6388;SDS011;3227;42.654;23.360;2023-04-01T09:00:05;14.53;;;5.13;;
6388;SDS011;3227;42.654;23.360;2023-04-01T09:02:57;16.43;;;5.53;;
6388;SDS011;3227;42.654;23.360;2023-04-01T09:05:52;16.77;;;6.10;;
6388;SDS011;3227;42.654;23.360;2023-04-01T09:08:36;8.57;;;4.67;;
6388;SDS011;3227;42.654;23.360;2023-04-01T09:11:22;9.07;;;4.77;;
6388;SDS011;3227;42.654;23.360;2023-04-01T09:14:13;9.40;;;5.00;;
6388;SDS011;3227;42.654;23.360;2023-04-01T09:17:05;12.53;;;5.20;;
6388;SDS011;3227;42.654;23.360;2023-04-01T09:20:14;7.97;;;4.80;;
6388;SDS011;3227;42.654;23.360;2023-04-01T09:22:58;9.97;;;4.73;;
6388;SDS011;3227;42.654;23.360;2023-04-01T09:25:41;10.53;;;4.50;;
6388;SDS011;3227;42.654;23.360;2023-04-01T09:28:24;12.23;;;4.30;;
6388;SDS011;3227;42.654;23.360;2023-04-01T09:31:00;12.20;;;4.43;;
6388;SDS011;3227;42.654;23.360;2023-04-01T09:36:53;11.70;;;4.75;;
6388;SDS011;3227;42.654;23.360;2023-04-01T09:39:37;9.00;;;4.23;;
6388;SDS011;3227;42.654;23.360;2023-04-01T09:42:15;9.73;;;4.53;;
6388;SDS011;3227;42.654;23.360;2023-04-01T09:45:04;10.70;;;4.10;;
6388;SDS011;3227;42.654;23.360;2023-04-01T09:47:41;9.60;;;3.73;;
6388;SDS011;3227;42.654;23.360;2023-04-01T09:53:18;12.87;;;3.77;;
6388;SDS011;3227;42.654;23.360;2023-04-01T09:56:01;9.13;;;3.88;;
6388;SDS011;3227;42.654;23.360;2023-04-01T09:59:16;10.95;;;4.10;;
6388;SDS011;3227;42.654;23.360;2023-04-01T10:02:10;11.33;;;4.40;;
6388;SDS011;3227;42.654;23.360;2023-04-01T10:05:22;10.75;;;3.80;;
6388;SDS011;3227;42.654;23.360;2023-04-01T10:08:18;10.30;;;3.60;;
6388;SDS011;3227;42.654;23.360;2023-04-01T10:11:12;13.37;;;4.10;;
6388;SDS011;3227;42.654;23.360;2023-04-01T10:20:02;13.48;;;4.50;;
6388;SDS011;3227;42.654;23.360;2023-04-01T10:22:53;11.57;;;4.20;;
6388;SDS011;3227;42.654;23.360;2023-04-01T10:28:54;11.60;;;3.97;;
6388;SDS011;3227;42.654;23.360;2023-04-01T10:35:03;9.83;;;4.07;;
6388;SDS011;3227;42.654;23.360;2023-04-01T10:40:58;12.27;;;5.23;;
6388;SDS011;3227;42.654;23.360;2023-04-01T10:50:10;10.45;;;4.78;;
6388;SDS011;3227;42.654;23.360;2023-04-01T10:59:20;15.67;;;5.33;;
6388;SDS011;3227;42.654;23.360;2023-04-01T11:11:34;12.20;;;4.57;;
6388;SDS011;3227;42.654;23.360;2023-04-01T11:14:36;10.43;;;4.07;;
6388;SDS011;3227;42.654;23.360;2023-04-01T11:27:12;20.23;;;4.07;;
6388;SDS011;3227;42.654;23.360;2023-04-01T11:30:02;12.07;;;3.03;;
6388;SDS011;3227;42.654;23.360;2023-04-01T11:32:42;12.50;;;3.47;;
6388;SDS011;3227;42.654;23.360;2023-04-01T11:38:30;12.37;;;2.87;;
6388;SDS011;3227;42.654;23.360;2023-04-01T11:41:11;9.23;;;2.60;;
6388;SDS011;3227;42.654;23.360;2023-04-01T11:44:01;11.63;;;2.93;;
6388;SDS011;3227;42.654;23.360;2023-04-01T11:46:39;8.10;;;2.93;;
6388;SDS011;3227;42.654;23.360;2023-04-01T11:49:20;12.30;;;3.13;;
6388;SDS011;3227;42.654;23.360;2023-04-01T11:54:52;13.50;;;2.93;;
6388;SDS011;3227;42.654;23.360;2023-04-01T11:57:42;10.97;;;3.37;;
6388;SDS011;3227;42.654;23.360;2023-04-01T12:00:22;9.60;;;3.63;;
6388;SDS011;3227;42.654;23.360;2023-04-01T12:03:09;14.50;;;3.77;;
6388;SDS011;3227;42.654;23.360;2023-04-01T12:05:48;8.97;;;3.20;;
6388;SDS011;3227;42.654;23.360;2023-04-01T12:08:30;9.70;;;4.07;;
6388;SDS011;3227;42.654;23.360;2023-04-01T12:11:06;10.53;;;3.60;;
6388;SDS011;3227;42.654;23.360;2023-04-01T12:13:45;13.03;;;3.80;;
6388;SDS011;3227;42.654;23.360;2023-04-01T12:16:23;11.93;;;4.13;;
6388;SDS011;3227;42.654;23.360;2023-04-01T12:18:58;9.03;;;4.23;;
6388;SDS011;3227;42.654;23.360;2023-04-01T12:21:32;11.27;;;3.50;;
6388;SDS011;3227;42.654;23.360;2023-04-01T12:24:18;7.87;;;3.57;;
6388;SDS011;3227;42.654;23.360;2023-04-01T12:27:16;7.97;;;4.07;;
6388;SDS011;3227;42.654;23.360;2023-04-01T12:30:09;9.17;;;3.30;;
6388;SDS011;3227;42.654;23.360;2023-04-01T12:32:54;11.60;;;3.80;;
6388;SDS011;3227;42.654;23.360;2023-04-01T12:35:39;7.10;;;3.47;;
6388;SDS011;3227;42.654;23.360;2023-04-01T12:38:22;11.30;;;4.50;;
6388;SDS011;3227;42.654;23.360;2023-04-01T12:47:00;11.23;;;5.30;;
6388;SDS011;3227;42.654;23.360;2023-04-01T12:52:39;11.73;;;4.65;;
6388;SDS011;3227;42.654;23.360;2023-04-01T12:55:23;9.60;;;4.10;;
6388;SDS011;3227;42.654;23.360;2023-04-01T13:01:23;8.45;;;3.75;;
6388;SDS011;3227;42.654;23.360;2023-04-01T13:04:01;7.70;;;3.83;;
6388;SDS011;3227;42.654;23.360;2023-04-01T13:07:12;9.60;;;4.23;;
6388;SDS011;3227;42.654;23.360;2023-04-01T13:09:58;9.83;;;4.70;;
6388;SDS011;3227;42.654;23.360;2023-04-01T13:12:36;12.50;;;4.43;;
6388;SDS011;3227;42.654;23.360;2023-04-01T13:15:23;9.30;;;4.03;;
6388;SDS011;3227;42.654;23.360;2023-04-01T13:17:57;13.27;;;4.03;;
6388;SDS011;3227;42.654;23.360;2023-04-01T13:20:35;9.95;;;4.40;;
6388;SDS011;3227;42.654;23.360;2023-04-01T13:23:14;10.73;;;4.72;;
6388;SDS011;3227;42.654;23.360;2023-04-01T13:25:51;10.40;;;4.00;;
6388;SDS011;3227;42.654;23.360;2023-04-01T13:28:25;6.47;;;3.57;;
6388;SDS011;3227;42.654;23.360;2023-04-01T13:30:57;7.53;;;3.50;;
6388;SDS011;3227;42.654;23.360;2023-04-01T13:33:33;8.02;;;3.75;;
6388;SDS011;3227;42.654;23.360;2023-04-01T13:36:13;6.60;;;3.07;;
6388;SDS011;3227;42.654;23.360;2023-04-01T13:38:58;9.32;;;3.53;;
6388;SDS011;3227;42.654;23.360;2023-04-01T13:41:45;8.57;;;3.77;;
6388;SDS011;3227;42.654;23.360;2023-04-01T13:44:22;7.77;;;3.47;;
6388;SDS011;3227;42.654;23.360;2023-04-01T13:49:59;9.17;;;3.47;;
6388;SDS011;3227;42.654;23.360;2023-04-01T13:52:48;6.70;;;3.20;;
6388;SDS011;3227;42.654;23.360;2023-04-01T13:55:34;8.98;;;3.40;;
6388;SDS011;3227;42.654;23.360;2023-04-01T13:58:24;9.75;;;4.07;;
6388;SDS011;3227;42.654;23.360;2023-04-01T14:01:15;12.87;;;3.63;;
6388;SDS011;3227;42.654;23.360;2023-04-01T14:03:52;6.37;;;3.10;;
6388;SDS011;3227;42.654;23.360;2023-04-01T14:06:36;8.43;;;3.58;;
6388;SDS011;3227;42.654;23.360;2023-04-01T14:09:20;8.57;;;3.53;;
6388;SDS011;3227;42.654;23.360;2023-04-01T14:12:09;7.83;;;3.47;;
6388;SDS011;3227;42.654;23.360;2023-04-01T14:14:49;9.43;;;3.73;;
6388;SDS011;3227;42.654;23.360;2023-04-01T14:17:34;9.20;;;4.20;;
6388;SDS011;3227;42.654;23.360;2023-04-01T14:20:17;8.33;;;4.20;;
6388;SDS011;3227;42.654;23.360;2023-04-01T14:22:56;9.23;;;4.53;;
6388;SDS011;3227;42.654;23.360;2023-04-01T14:25:50;8.33;;;4.03;;
6388;SDS011;3227;42.654;23.360;2023-04-01T14:28:35;10.33;;;4.77;;
6388;SDS011;3227;42.654;23.360;2023-04-01T14:31:15;9.00;;;4.70;;
6388;SDS011;3227;42.654;23.360;2023-04-01T14:33:52;11.17;;;4.90;;
6388;SDS011;3227;42.654;23.360;2023-04-01T14:36:30;11.63;;;4.65;;
6388;SDS011;3227;42.654;23.360;2023-04-01T14:39:12;11.82;;;4.93;;
6388;SDS011;3227;42.654;23.360;2023-04-01T14:41:51;9.63;;;4.57;;
6388;SDS011;3227;42.654;23.360;2023-04-01T14:44:33;15.75;;;5.43;;
6388;SDS011;3227;42.654;23.360;2023-04-01T14:47:28;10.20;;;5.00;;
6388;SDS011;3227;42.654;23.360;2023-04-01T14:50:11;10.60;;;4.38;;
6388;SDS011;3227;42.654;23.360;2023-04-01T14:52:42;11.67;;;4.60;;
6388;SDS011;3227;42.654;23.360;2023-04-01T14:55:26;9.50;;;4.10;;
6388;SDS011;3227;42.654;23.360;2023-04-01T14:58:00;8.93;;;4.00;;
6388;SDS011;3227;42.654;23.360;2023-04-01T15:00:41;11.07;;;4.50;;
6388;SDS011;3227;42.654;23.360;2023-04-01T15:03:14;11.67;;;4.60;;
6388;SDS011;3227;42.654;23.360;2023-04-01T15:05:52;10.30;;;3.83;;
6388;SDS011;3227;42.654;23.360;2023-04-01T15:08:23;10.33;;;4.53;;
6388;SDS011;3227;42.654;23.360;2023-04-01T15:11:01;7.75;;;4.03;;
6388;SDS011;3227;42.654;23.360;2023-04-01T15:13:51;11.30;;;4.00;;
6388;SDS011;3227;42.654;23.360;2023-04-01T15:16:39;8.47;;;3.97;;
6388;SDS011;3227;42.654;23.360;2023-04-01T15:25:17;9.10;;;4.67;;
6388;SDS011;3227;42.654;23.360;2023-04-01T15:27:53;8.80;;;4.53;;
6388;SDS011;3227;42.654;23.360;2023-04-01T15:30:33;10.10;;;4.80;;
6388;SDS011;3227;42.654;23.360;2023-04-01T15:33:13;9.93;;;5.07;;
6388;SDS011;3227;42.654;23.360;2023-04-01T15:35:57;8.33;;;4.63;;
6388;SDS011;3227;42.654;23.360;2023-04-01T15:38:33;11.83;;;5.50;;
6388;SDS011;3227;42.654;23.360;2023-04-01T15:41:08;10.57;;;4.73;;
6388;SDS011;3227;42.654;23.360;2023-04-01T15:43:41;9.83;;;4.70;;
6388;SDS011;3227;42.654;23.360;2023-04-01T15:46:24;10.10;;;4.50;;
6388;SDS011;3227;42.654;23.360;2023-04-01T15:49:01;11.10;;;5.70;;
6388;SDS011;3227;42.654;23.360;2023-04-01T15:51:38;14.60;;;5.55;;
6388;SDS011;3227;42.654;23.360;2023-04-01T15:54:27;9.83;;;3.40;;
6388;SDS011;3227;42.654;23.360;2023-04-01T15:57:14;3.47;;;2.10;;
6388;SDS011;3227;42.654;23.360;2023-04-01T15:59:55;3.90;;;2.40;;
6388;SDS011;3227;42.654;23.360;2023-04-01T16:02:45;3.60;;;2.27;;
6388;SDS011;3227;42.654;23.360;2023-04-01T16:05:25;6.37;;;3.13;;
6388;SDS011;3227;42.654;23.360;2023-04-01T16:08:08;7.93;;;3.40;;
6388;SDS011;3227;42.654;23.360;2023-04-01T16:10:52;8.00;;;3.77;;
6388;SDS011;3227;42.654;23.360;2023-04-01T16:13:40;6.57;;;3.57;;
6388;SDS011;3227;42.654;23.360;2023-04-01T16:16:19;7.87;;;3.70;;
6388;SDS011;3227;42.654;23.360;2023-04-01T16:19:01;8.87;;;3.80;;
6388;SDS011;3227;42.654;23.360;2023-04-01T16:21:42;6.23;;;3.80;;
6388;SDS011;3227;42.654;23.360;2023-04-01T16:24:17;6.47;;;4.20;;
6388;SDS011;3227;42.654;23.360;2023-04-01T16:26:50;6.87;;;3.83;;
6388;SDS011;3227;42.654;23.360;2023-04-01T16:29:24;7.47;;;4.00;;
6388;SDS011;3227;42.654;23.360;2023-04-01T16:32:02;6.43;;;3.60;;
6388;SDS011;3227;42.654;23.360;2023-04-01T16:34:43;6.77;;;3.53;;
6388;SDS011;3227;42.654;23.360;2023-04-01T16:37:15;5.57;;;3.30;;
6388;SDS011;3227;42.654;23.360;2023-04-01T16:39:47;6.90;;;3.50;;
6388;SDS011;3227;42.654;23.360;2023-04-01T16:42:23;5.70;;;3.30;;
6388;SDS011;3227;42.654;23.360;2023-04-01T16:44:59;6.30;;;3.03;;
6388;SDS011;3227;42.654;23.360;2023-04-01T16:47:29;6.47;;;3.10;;
6388;SDS011;3227;42.654;23.360;2023-04-01T16:50:06;5.17;;;3.07;;
6388;SDS011;3227;42.654;23.360;2023-04-01T16:52:43;5.05;;;2.90;;
6388;SDS011;3227;42.654;23.360;2023-04-01T16:55:35;5.43;;;2.92;;
6388;SDS011;3227;42.654;23.360;2023-04-01T16:58:14;5.20;;;2.80;;
6388;SDS011;3227;42.654;23.360;2023-04-01T17:00:48;4.00;;;2.40;;
6388;SDS011;3227;42.654;23.360;2023-04-01T17:03:20;4.65;;;2.60;;
6388;SDS011;3227;42.654;23.360;2023-04-01T17:06:03;3.83;;;2.40;;
6388;SDS011;3227;42.654;23.360;2023-04-01T17:08:48;4.23;;;2.50;;
6388;SDS011;3227;42.654;23.360;2023-04-01T17:11:26;4.50;;;2.70;;
6388;SDS011;3227;42.654;23.360;2023-04-01T17:14:00;4.10;;;2.20;;
6388;SDS011;3227;42.654;23.360;2023-04-01T17:19:44;3.88;;;2.30;;
6388;SDS011;3227;42.654;23.360;2023-04-01T17:22:30;4.50;;;2.20;;
6388;SDS011;3227;42.654;23.360;2023-04-01T17:25:14;3.17;;;2.23;;